createdAt,value
2023-03-17T00:04:54.248Z,98410.66
2023-03-17T00:09:56.491Z,98407.00
2023-03-17T00:14:58.682Z,98394.97
2023-03-17T00:20:00.619Z,98382.09
2023-03-17T00:25:02.752Z,98373.69
2023-03-17T00:30:05.699Z,98366.09
2023-03-17T00:35:29.019Z,98349.97
2023-03-17T00:40:31.827Z,98338.84
2023-03-17T00:45:34.475Z,98340.47
2023-03-17T00:50:36.574Z,98343.63
2023-03-17T00:55:39.089Z,98332.38
2023-03-17T01:00:41.129Z,98331.44
2023-03-17T01:05:44.121Z,98325.34
2023-03-17T01:10:50.090Z,98316.94
2023-03-17T01:15:56.090Z,98314.63
2023-03-17T01:20:59.180Z,98302.03
2023-03-17T01:26:01.837Z,98298.88
2023-03-17T01:31:04.055Z,98298.44
2023-03-17T01:36:06.354Z,98292.50
2023-03-17T01:41:08.246Z,98283.44
2023-03-17T01:46:21.225Z,98265.28
2023-03-17T01:51:27.997Z,98258.38
2023-03-17T01:56:30.326Z,98245.50
2023-03-17T02:01:39.105Z,98243.88
2023-03-17T02:06:55.119Z,98240.66
2023-03-17T02:12:01.804Z,98263.81
2023-03-17T02:17:04.045Z,98240.53
2023-03-17T02:22:06.414Z,98250.25
2023-03-17T02:27:17.898Z,98239.16
2023-03-17T02:32:20.814Z,98228.03
2023-03-17T02:37:25.722Z,98228.59
2023-03-17T02:42:28.608Z,98231.81
2023-03-17T02:47:33.945Z,98229.94
2023-03-17T02:52:36.558Z,98234.81
2023-03-17T02:57:38.560Z,98236.31
2023-03-17T03:02:41.709Z,98238.09
2023-03-17T03:07:43.668Z,98235.25
2023-03-17T03:12:46.520Z,98228.34
2023-03-17T03:17:48.314Z,98223.88
2023-03-17T03:22:50.828Z,98214.97
2023-03-17T03:27:52.869Z,98214.97
2023-03-17T03:32:57.962Z,98209.81
2023-03-17T03:38:00.571Z,98204.81
2023-03-17T03:43:16.123Z,98211.72
2023-03-17T03:48:24.200Z,98207.50
2023-03-17T03:53:26.808Z,98208.19
2023-03-17T03:58:28.916Z,98205.63
2023-03-17T04:03:31.028Z,98202.09
2023-03-17T04:08:33.285Z,98206.28
2023-03-17T04:13:35.388Z,98203.16
2023-03-17T04:18:37.454Z,98209.53
2023-03-17T04:23:39.644Z,98216.81
2023-03-17T04:28:41.523Z,98221.00
2023-03-17T04:33:44.627Z,98220.84
2023-03-17T04:38:46.710Z,98215.28
2023-03-17T04:43:48.600Z,98213.91
2023-03-17T04:48:50.410Z,98210.78
2023-03-17T04:53:52.679Z,98210.34
2023-03-17T04:58:54.917Z,98208.16
2023-03-17T05:03:57.205Z,98190.94
2023-03-17T05:08:59.079Z,98191.44
2023-03-17T05:14:01.204Z,98179.22
2023-03-17T05:19:03.933Z,98178.78
2023-03-17T05:24:06.615Z,98177.66
2023-03-17T05:29:09.394Z,98168.69
2023-03-17T05:34:11.563Z,98175.59
2023-03-17T05:39:14.663Z,98179.91
2023-03-17T05:44:16.694Z,98179.22
2023-03-17T05:49:19.182Z,98184.50
2023-03-17T05:54:22.327Z,98187.88
2023-03-17T05:59:24.318Z,98200.72
2023-03-17T06:04:33.074Z,98200.47
2023-03-17T06:09:35.285Z,98200.59
2023-03-17T06:14:37.044Z,98212.75
2023-03-17T06:19:38.985Z,98202.59
2023-03-17T06:24:40.841Z,98184.63
2023-03-17T06:29:42.735Z,98197.22
2023-03-17T06:34:44.856Z,98190.88
2023-03-17T06:39:48.251Z,98202.53
2023-03-17T06:44:52.588Z,98214.63
2023-03-17T06:49:54.436Z,98208.59
2023-03-17T06:54:56.261Z,98216.25
2023-03-17T06:59:58.068Z,98221.75
2023-03-17T07:05:00.863Z,98237.38
2023-03-17T07:10:03.754Z,98238.09
2023-03-17T07:15:06.071Z,98222.03
2023-03-17T07:20:09.918Z,98199.03
2023-03-17T07:25:11.981Z,98218.84
2023-03-17T07:30:19.607Z,98201.41
2023-03-17T07:35:22.554Z,98194.09
2023-03-17T07:40:27.262Z,98193.28
2023-03-17T07:45:30.443Z,98170.63
2023-03-17T07:50:35.822Z,98173.09
2023-03-17T07:55:39.373Z,98170.50
2023-03-17T08:00:41.280Z,98161.81
2023-03-17T08:05:44.602Z,98180.50
2023-03-17T08:10:46.878Z,98179.06
2023-03-17T08:15:49.055Z,98165.22
2023-03-17T08:20:51.467Z,98170.88
2023-03-17T08:26:01.919Z,98164.88
2023-03-17T08:31:13.815Z,98149.91
2023-03-17T08:36:17.064Z,98157.06
2023-03-17T08:41:22.920Z,98141.63
2023-03-17T08:46:28.273Z,98137.63
2023-03-17T08:51:34.781Z,98139.78
2023-03-17T08:56:37.732Z,98147.09
2023-03-17T09:01:41.638Z,98138.31
2023-03-17T09:07:01.758Z,98132.22
2023-03-17T09:12:06.980Z,98132.09
2023-03-17T09:17:09.851Z,98124.53
2023-03-17T09:22:17.802Z,98128.56
2023-03-17T09:27:19.942Z,98126.94
2023-03-17T09:32:22.765Z,98118.31
2023-03-17T09:37:24.822Z,98122.91
2023-03-17T09:42:49.842Z,98111.84
2023-03-17T09:48:21.721Z,98103.66
2023-03-17T09:53:34.367Z,98107.22
2023-03-17T09:58:38.443Z,98122.63
2023-03-17T10:03:40.563Z,98123.47
2023-03-17T10:08:51.575Z,98128.84
2023-03-17T10:14:28.861Z,98118.53
2023-03-17T10:19:30.775Z,98109.16
2023-03-17T10:24:34.438Z,98119.53
2023-03-17T10:29:36.377Z,98117.25
2023-03-17T10:34:39.661Z,98110.47
2023-03-17T10:39:49.193Z,98106.25
2023-03-17T10:45:32.555Z,98105.28
2023-03-17T10:50:37.934Z,98105.94
2023-03-17T10:55:49.960Z,98109.50
2023-03-17T11:00:58.320Z,98109.28
2023-03-17T11:06:04.182Z,98096.63
2023-03-17T11:11:10.415Z,98098.38
2023-03-17T11:16:24.294Z,98086.84
2023-03-17T11:21:32.413Z,98088.97
2023-03-17T11:27:00.427Z,98087.00
2023-03-17T11:32:02.478Z,98073.34
2023-03-17T11:37:22.243Z,98083.88
2023-03-17T11:42:30.076Z,98083.53
2023-03-17T11:47:49.981Z,98074.44
2023-03-17T11:53:36.992Z,98079.75
2023-03-17T11:58:46.592Z,98057.16
2023-03-17T12:03:57.812Z,98066.53
2023-03-17T12:09:16.540Z,98061.59
2023-03-17T12:14:28.745Z,98057.78
2023-03-17T12:19:54.082Z,98048.03
2023-03-17T12:25:21.180Z,98033.38
2023-03-17T12:30:52.294Z,98029.38
2023-03-17T12:35:54.396Z,98035.31
2023-03-17T12:41:26.747Z,98027.16
2023-03-17T12:46:34.676Z,98017.94
2023-03-17T12:51:40.055Z,98011.47
2023-03-17T12:56:47.404Z,98007.31
2023-03-17T13:02:15.571Z,98011.53
2023-03-17T13:07:27.059Z,98012.34
2023-03-17T13:12:44.782Z,98005.34
2023-03-17T13:17:46.962Z,97993.69
2023-03-17T13:23:13.940Z,97990.97
2023-03-17T13:28:24.585Z,97993.13
2023-03-17T13:33:33.200Z,97984.34
2023-03-17T13:38:35.079Z,97985.63
2023-03-17T13:43:58.417Z,97976.66
2023-03-17T13:49:18.755Z,97973.25
2023-03-17T13:54:26.755Z,97966.25
2023-03-17T14:00:05.659Z,97956.69
2023-03-17T14:05:17.553Z,97949.25
2023-03-17T14:10:23.963Z,97957.38
2023-03-17T14:15:48.119Z,97960.31
2023-03-17T14:20:55.212Z,97955.94
2023-03-17T14:25:59.505Z,97957.72
2023-03-17T14:31:07.343Z,97955.31
2023-03-17T14:36:14.249Z,97954.50
2023-03-17T14:41:22.707Z,97939.44
2023-03-17T14:46:32.310Z,97949.03
2023-03-17T14:51:36.754Z,97935.84
2023-03-17T14:56:43.051Z,97939.53
2023-03-17T15:01:49.630Z,97930.25
2023-03-17T15:06:54.347Z,97929.72
2023-03-17T15:12:18.241Z,97932.47
2023-03-17T15:17:28.484Z,97916.91
2023-03-17T15:22:32.926Z,97916.72
2023-03-17T15:27:34.721Z,97914.47
2023-03-17T15:32:36.671Z,97925.91
2023-03-17T15:37:38.628Z,97928.94
2023-03-17T15:42:40.543Z,97932.59
2023-03-17T15:47:44.122Z,97924.41
2023-03-17T15:52:46.092Z,97920.25
2023-03-17T15:57:54.748Z,97923.69
2023-03-17T16:03:02.837Z,97920.19
2023-03-17T16:08:04.870Z,97909.34
2023-03-17T16:13:06.846Z,97912.28
2023-03-17T16:18:19.153Z,97903.03
2023-03-17T16:23:27.646Z,97897.56
2023-03-17T16:28:32.160Z,97891.44
2023-03-17T16:33:39.718Z,97897.31
2023-03-17T16:38:44.949Z,97888.25
2023-03-17T16:43:54.111Z,97892.53
2023-03-17T16:48:56.292Z,97890.59
2023-03-17T16:53:58.446Z,97892.94
2023-03-17T16:59:01.088Z,97897.81
2023-03-17T17:04:03.240Z,97902.88
2023-03-17T17:09:05.553Z,97917.97
2023-03-17T17:14:07.344Z,97917.63
2023-03-17T17:19:17.587Z,97909.72
2023-03-17T17:24:19.674Z,97914.41
2023-03-17T17:29:21.557Z,97922.88
2023-03-17T17:34:23.776Z,97922.56
2023-03-17T17:39:25.954Z,97925.81
2023-03-17T17:44:27.810Z,97917.41
2023-03-17T17:49:29.688Z,97911.91
2023-03-17T17:54:33.877Z,97919.19
2023-03-17T17:59:35.699Z,97919.38
2023-03-17T18:04:37.701Z,97911.75
2023-03-17T18:09:39.963Z,97908.34
2023-03-17T18:14:42.054Z,97915.50
2023-03-17T18:19:44.187Z,97900.28
2023-03-17T18:24:48.697Z,97897.03
2023-03-17T18:29:50.749Z,97897.19
2023-03-17T18:34:52.880Z,97892.84
2023-03-17T18:40:11.975Z,97887.00
2023-03-17T18:45:16.096Z,97893.97
2023-03-17T18:50:18.633Z,97880.53
2023-03-17T18:55:21.018Z,97879.72
2023-03-17T19:00:25.368Z,97868.56
2023-03-17T19:05:27.952Z,97874.72
2023-03-17T19:10:30.460Z,97875.03
2023-03-17T19:15:32.719Z,97864.38
2023-03-17T19:20:36.263Z,97868.28
2023-03-17T19:25:38.087Z,97875.72
2023-03-17T19:30:40.003Z,97876.06
2023-03-17T19:35:44.377Z,97874.59
2023-03-17T19:40:46.538Z,97885.13
2023-03-17T19:45:48.670Z,97875.91
2023-03-17T19:50:51.028Z,97872.34
2023-03-17T19:55:52.864Z,97877.69
2023-03-17T20:00:54.877Z,97873.00
2023-03-17T20:05:56.770Z,97887.72
2023-03-17T20:11:01.538Z,97898.41
2023-03-17T20:16:04.695Z,97892.72
2023-03-17T20:21:12.434Z,97889.00
2023-03-17T20:26:14.339Z,97887.56
2023-03-17T20:31:16.358Z,97895.31
2023-03-17T20:36:18.319Z,97888.22
2023-03-17T20:41:21.093Z,97893.06
2023-03-17T20:46:24.785Z,97895.47
2023-03-17T20:51:27.058Z,97885.13
2023-03-17T20:56:30.046Z,97884.81
2023-03-17T21:01:36.356Z,97886.75
2023-03-17T21:06:38.833Z,97881.25
2023-03-17T21:11:41.113Z,97876.56
2023-03-17T21:16:44.938Z,97883.34
2023-03-17T21:21:46.896Z,97874.44
2023-03-17T21:26:48.925Z,97890.13
2023-03-17T21:31:51.021Z,97881.41
2023-03-17T21:36:53.810Z,97871.22
2023-03-17T21:41:56.339Z,97873.81
2023-03-17T21:46:58.447Z,97872.84
2023-03-17T21:52:00.320Z,97875.75
2023-03-17T21:57:02.124Z,97875.41
2023-03-17T22:02:04.057Z,97864.75
2023-03-17T22:07:06.060Z,97856.00
2023-03-17T22:12:08.680Z,97876.38
2023-03-17T22:17:10.789Z,97880.59
2023-03-17T22:22:12.778Z,97886.09
2023-03-17T22:27:15.857Z,97863.94
2023-03-17T22:32:17.750Z,97864.44
2023-03-17T22:37:22.253Z,97858.94
2023-03-17T22:42:24.140Z,97861.34
2023-03-17T22:47:26.906Z,97853.59
2023-03-17T22:52:29.026Z,97856.34
2023-03-17T22:57:31.180Z,97854.06
2023-03-17T23:02:33.045Z,97854.56
2023-03-17T23:07:49.481Z,97849.06
2023-03-17T23:12:52.452Z,97845.97
2023-03-17T23:17:54.379Z,97846.94
2023-03-17T23:22:56.549Z,97863.41
2023-03-17T23:27:58.382Z,97866.63
2023-03-17T23:33:01.281Z,97861.94
2023-03-17T23:38:04.284Z,97875.44
2023-03-17T23:43:06.703Z,97867.50
2023-03-17T23:48:10.167Z,97867.19
2023-03-17T23:53:12.288Z,97872.00
2023-03-17T23:58:17.835Z,97872.31
